Map

Track Data

SID SEASON NUMBER BASIN SUBBASIN NAME ISO_TIME NATURE LAT LON WMO_WIND WMO_PRES WMO_AGENCY TRACK_TYPE DIST2LAND LANDFALL IFLAG USA_AGENCY USA_ATCF_ID USA_LAT USA_LON USA_RECORD USA_STATUS USA_WIND USA_PRES USA_SSHS USA_R34_NE USA_R34_SE USA_R34_SW USA_R34_NW USA_R50_NE USA_R50_SE USA_R50_SW USA_R50_NW USA_R64_NE USA_R64_SE USA_R64_SW USA_R64_NW USA_POCI USA_ROCI USA_RMW USA_EYE TOKYO_LAT TOKYO_LON TOKYO_GRADE TOKYO_WIND TOKYO_PRES TOKYO_R50_DIR TOKYO_R50_LONG TOKYO_R50_SHORT TOKYO_R30_DIR TOKYO_R30_LONG TOKYO_R30_SHORT TOKYO_LAND CMA_LAT CMA_LON CMA_CAT CMA_WIND CMA_PRES HKO_LAT HKO_LON HKO_CAT HKO_WIND HKO_PRES NEWDELHI_LAT NEWDELHI_LON NEWDELHI_GRADE NEWDELHI_WIND NEWDELHI_PRES NEWDELHI_CI NEWDELHI_DP NEWDELHI_POCI REUNION_LAT REUNION_LON REUNION_TYPE REUNION_WIND REUNION_PRES REUNION_TNUM REUNION_CI REUNION_RMW REUNION_R34_NE REUNION_R34_SE REUNION_R34_SW REUNION_R34_NW REUNION_R50_NE REUNION_R50_SE REUNION_R50_SW REUNION_R50_NW REUNION_R64_NE REUNION_R64_SE REUNION_R64_SW REUNION_R64_NW BOM_LAT BOM_LON BOM_TYPE BOM_WIND BOM_PRES BOM_TNUM BOM_CI BOM_RMW BOM_R34_NE BOM_R34_SE BOM_R34_SW BOM_R34_NW BOM_R50_NE BOM_R50_SE BOM_R50_SW BOM_R50_NW BOM_R64_NE BOM_R64_SE BOM_R64_SW BOM_R64_NW BOM_ROCI BOM_POCI BOM_EYE BOM_POS_METHOD BOM_PRES_METHOD NADI_LAT NADI_LON NADI_CAT NADI_WIND NADI_PRES WELLINGTON_LAT WELLINGTON_LON WELLINGTON_WIND WELLINGTON_PRES DS824_LAT DS824_LON DS824_STAGE DS824_WIND DS824_PRES TD9636_LAT TD9636_LON TD9636_STAGE TD9636_WIND TD9636_PRES TD9635_LAT TD9635_LON TD9635_WIND TD9635_PRES TD9635_ROCI NEUMANN_LAT NEUMANN_LON NEUMANN_CLASS NEUMANN_WIND NEUMANN_PRES MLC_LAT MLC_LON MLC_CLASS MLC_WIND MLC_PRES USA_GUST BOM_GUST BOM_GUST_PER REUNION_GUST REUNION_GUST_PER USA_SEAHGT USA_SEARAD_NE USA_SEARAD_SE USA_SEARAD_SW USA_SEARAD_NW STORM_SPEED STORM_DIR
1997212N11265 1997 61 EP MM GUILLERMO 1997-07-30 12:00:00 TS 11.0000 -94.7000 25 1010 hurdat_epa main 476 473 O_____________ hurdat_epa EP091997 11.0000 -94.7000 TD 25 1010 -1 8 291
1997212N11265 1997 61 EP MM GUILLERMO 1997-07-30 15:00:00 TS 11.1501 -95.1024 main 485 485 P_____________ EP091997 11.1501 -95.1024 TD 27 1009 -1 8 291
1997212N11265 1997 61 EP MM GUILLERMO 1997-07-30 18:00:00 TS 11.3000 -95.5000 30 1009 hurdat_epa main 495 476 O_____________ hurdat_epa EP091997 11.3000 -95.5000 TD 30 1009 -1 8 291
1997212N11265 1997 61 EP MM GUILLERMO 1997-07-30 21:00:00 TS 11.4499 -95.8926 main 476 449 P_____________ EP091997 11.4499 -95.8926 TD 30 1008 -1 8 291
1997212N11265 1997 61 EP MM GUILLERMO 1997-07-31 00:00:00 TS 11.6000 -96.3000 30 1008 hurdat_epa main 449 436 O_____________ hurdat_epa EP091997 11.6000 -96.3000 TD 30 1008 -1 9 290
1997212N11265 1997 61 EP MM GUILLERMO 1997-07-31 03:00:00 TS 11.7575 -96.7425 main 425 416 P_____________ EP091997 11.7575 -96.7425 TD 32 1006 -1 9 289
1997212N11265 1997 61 EP MM GUILLERMO 1997-07-31 06:00:00 TS 11.9000 -97.2000 35 1005 hurdat_epa main 419 412 O_____________ hurdat_epa EP091997 11.9000 -97.2000 TS 35 1005 0 9 286
1997212N11265 1997 61 EP MM GUILLERMO 1997-07-31 09:00:00 TS 12.0149 -97.6425 main 417 412 P_____________ EP091997 12.0149 -97.6425 TS 37 1003 0 9 283
1997212N11265 1997 61 EP MM GUILLERMO 1997-07-31 12:00:00 TS 12.1000 -98.1000 40 1002 hurdat_epa main 424 424 O_____________ hurdat_epa EP091997 12.1000 -98.1000 TS 40 1002 0 9 278
1997212N11265 1997 61 EP MM GUILLERMO 1997-07-31 15:00:00 TS 12.1500 -98.6001 main 445 434 P_____________ EP091997 12.1500 -98.6001 TS 42 1001 0 10 276
1997212N11265 1997 61 EP MM GUILLERMO 1997-07-31 18:00:00 TS 12.2000 -99.1000 45 1000 hurdat_epa main 447 447 O_____________ hurdat_epa EP091997 12.2000 -99.1000 TS 45 1000 0 9 279
1997212N11265 1997 61 EP MM GUILLERMO 1997-07-31 21:00:00 TS 12.2998 -99.5500 main 453 453 P_____________ EP091997 12.2998 -99.5500 TS 47 998 0 9 283
1997212N11265 1997 61 EP MM GUILLERMO 1997-08-01 00:00:00 TS 12.4000 -100.000 50 997 hurdat_epa main 461 461 O_____________ hurdat_epa EP091997 12.4000 -100.000 TS 50 997 0 9 280
1997212N11265 1997 61 EP MM GUILLERMO 1997-08-01 03:00:00 TS 12.4574 -100.493 main 472 472 P_____________ EP091997 12.4574 -100.493 TS 52 995 0 10 276
1997212N11265 1997 61 EP MM GUILLERMO 1997-08-01 06:00:00 TS 12.5000 -101.000 55 994 hurdat_epa main 490 490 O_____________ hurdat_epa EP091997 12.5000 -101.000 TS 55 994 0 10 275
1997212N11265 1997 61 EP MM GUILLERMO 1997-08-01 09:00:00 TS 12.5499 -101.500 main 508 498 P_____________ EP091997 12.5499 -101.500 TS 57 992 0 10 276
1997212N11265 1997 61 EP MM GUILLERMO 1997-08-01 12:00:00 TS 12.6000 -102.000 60 990 hurdat_epa main 521 521 O_____________ hurdat_epa EP091997 12.6000 -102.000 TS 60 990 0 10 275
1997212N11265 1997 61 EP MM GUILLERMO 1997-08-01 15:00:00 TS 12.6349 -102.500 main 546 542 P_____________ EP091997 12.6349 -102.500 TS 62 988 0 10 276
1997212N11265 1997 61 EP MM GUILLERMO 1997-08-01 18:00:00 TS 12.7000 -103.000 65 987 hurdat_epa main 553 551 O_____________ hurdat_epa EP091997 12.7000 -103.000 HU 65 987 1 10 282
1997212N11265 1997 61 EP MM GUILLERMO 1997-08-01 21:00:00 TS 12.8499 -103.500 main 565 555 P_____________ EP091997 12.8499 -103.500 HU 67 985 1 10 287
1997212N11265 1997 61 EP MM GUILLERMO 1997-08-02 00:00:00 TS 13.0000 -104.000 70 983 hurdat_epa main 573 573 O_____________ hurdat_epa EP091997 13.0000 -104.000 HU 70 983 1 10 283
1997212N11265 1997 61 EP MM GUILLERMO 1997-08-02 03:00:00 TS 13.0649 -104.493 main 585 585 P_____________ EP091997 13.0649 -104.493 HU 72 981 1 10 276
1997212N11265 1997 61 EP MM GUILLERMO 1997-08-02 06:00:00 TS 13.1000 -105.000 75 979 hurdat_epa main 602 602 O_____________ hurdat_epa EP091997 13.1000 -105.000 HU 75 979 1 10 275
1997212N11265 1997 61 EP MM GUILLERMO 1997-08-02 09:00:00 TS 13.1500 -105.550 main 623 613 P_____________ EP091997 13.1500 -105.550 HU 82 974 1 11 275
1997212N11265 1997 61 EP MM GUILLERMO 1997-08-02 12:00:00 TS 13.2000 -106.100 90 969 hurdat_epa main 635 635 O_____________ hurdat_epa EP091997 13.2000 -106.100 HU 90 969 2 10 276
1997212N11265 1997 61 EP MM GUILLERMO 1997-08-02 15:00:00 TS 13.2499 -106.608 main 660 650 P_____________ EP091997 13.2499 -106.608 HU 97 964 3 10 276
1997212N11265 1997 61 EP MM GUILLERMO 1997-08-02 18:00:00 TS 13.3000 -107.100 105 959 hurdat_epa main 679 679 O_____________ hurdat_epa EP091997 13.3000 -107.100 HU 105 959 3 10 276
1997212N11265 1997 61 EP MM GUILLERMO 1997-08-02 21:00:00 TS 13.3499 -107.600 main 711 702 P_____________ EP091997 13.3499 -107.600 HU 110 953 3 10 276
1997212N11265 1997 61 EP MM GUILLERMO 1997-08-03 00:00:00 TS 13.4000 -108.100 115 947 hurdat_epa main 736 736 O_____________ hurdat_epa EP091997 13.4000 -108.100 HU 115 947 4 10 276
1997212N11265 1997 61 EP MM GUILLERMO 1997-08-03 03:00:00 TS 13.4499 -108.593 main 765 755 P_____________ EP091997 13.4499 -108.593 HU 120 941 4 10 276
1997212N11265 1997 61 EP MM GUILLERMO 1997-08-03 06:00:00 TS 13.5000 -109.100 125 935 hurdat_epa main 785 785 O_____________ hurdat_epa EP091997 13.5000 -109.100 HU 125 935 4 10 276
1997212N11265 1997 61 EP MM GUILLERMO 1997-08-03 09:00:00 TS 13.5499 -109.635 main 818 816 P_____________ EP091997 13.5499 -109.635 HU 130 930 4 11 275
1997212N11265 1997 61 EP MM GUILLERMO 1997-08-03 12:00:00 TS 13.6000 -110.200 135 925 hurdat_epa main 851 851 O_____________ hurdat_epa EP091997 13.6000 -110.200 HU 135 925 4 11 275
1997212N11265 1997 61 EP MM GUILLERMO 1997-08-03 15:00:00 TS 13.6424 -110.793 main 895 895 P_____________ EP091997 13.6424 -110.793 HU 132 926 4 12 275
1997212N11265 1997 61 EP MM GUILLERMO 1997-08-03 18:00:00 TS 13.7000 -111.400 130 927 hurdat_epa main 933 933 O_____________ hurdat_epa EP091997 13.7000 -111.400 HU 130 927 4 12 278
1997212N11265 1997 61 EP MM GUILLERMO 1997-08-03 21:00:00 TS 13.7998 -111.992 main 971 971 P_____________ EP091997 13.7998 -111.992 HU 130 928 4 12 280
1997212N11265 1997 61 EP MM GUILLERMO 1997-08-04 00:00:00 TS 13.9000 -112.600 130 929 hurdat_epa main 1012 1012 O_____________ hurdat_epa EP091997 13.9000 -112.600 HU 130 929 4 12 277
1997212N11265 1997 61 EP MM GUILLERMO 1997-08-04 03:00:00 TS 13.9574 -113.243 main 1051 1051 P_____________ EP091997 13.9574 -113.243 HU 130 928 4 13 275
1997212N11265 1997 61 EP MM GUILLERMO 1997-08-04 06:00:00 TS 14.0000 -113.900 130 928 hurdat_epa main 1077 1077 O_____________ hurdat_epa EP091997 14.0000 -113.900 HU 130 928 4 13 274
1997212N11265 1997 61 EP MM GUILLERMO 1997-08-04 09:00:00 TS 14.0498 -114.543 main 1102 1097 P_____________ EP091997 14.0498 -114.543 HU 132 926 4 13 275
1997212N11265 1997 61 EP MM GUILLERMO 1997-08-04 12:00:00 TS 14.1000 -115.200 135 925 hurdat_epa main 1126 1126 O_____________ hurdat_epa EP091997 14.1000 -115.200 HU 135 925 4 13 274
1997212N11265 1997 61 EP MM GUILLERMO 1997-08-04 15:00:00 TS 14.1499 -115.893 main 1164 1154 P_____________ EP091997 14.1499 -115.893 HU 137 923 5 14 274
1997212N11265 1997 61 EP MM GUILLERMO 1997-08-04 18:00:00 TS 14.2000 -116.600 140 921 hurdat_epa main 1195 1195 O_____________ hurdat_epa EP091997 14.2000 -116.600 HU 140 921 5 14 275
1997212N11265 1997 61 EP MM GUILLERMO 1997-08-04 21:00:00 TS 14.2572 -117.292 main 1231 1231 P_____________ EP091997 14.2572 -117.292 HU 140 920 5 14 274
1997212N11265 1997 61 EP MM GUILLERMO 1997-08-05 00:00:00 TS 14.3000 -118.000 140 919 hurdat_epa main 1278 1278 O_____________ hurdat_epa EP091997 14.3000 -118.000 HU 140 919 5 14 272
1997212N11265 1997 61 EP MM GUILLERMO 1997-08-05 03:00:00 TS 14.2999 -118.750 main 1335 1335 P_____________ EP091997 14.2999 -118.750 HU 140 919 5 15 270
1997212N11265 1997 61 EP MM GUILLERMO 1997-08-05 06:00:00 TS 14.3000 -119.500 140 920 hurdat_epa main 1387 1387 O_____________ hurdat_epa EP091997 14.3000 -119.500 HU 140 920 5 14 271
1997212N11265 1997 61 EP MM GUILLERMO 1997-08-05 09:00:00 TS 14.3347 -120.200 main 1439 1439 P_____________ EP091997 14.3347 -120.200 HU 140 920 5 14 274
1997212N11265 1997 61 EP MM GUILLERMO 1997-08-05 12:00:00 TS 14.4000 -120.900 140 921 hurdat_epa main 1474 1474 O_____________ hurdat_epa EP091997 14.4000 -120.900 HU 140 921 5 14 276
1997212N11265 1997 61 EP MM GUILLERMO 1997-08-05 15:00:00 TS 14.4924 -121.650 main 1512 1512 P_____________ EP091997 14.4924 -121.650 HU 137 923 5 15 278
1997212N11265 1997 61 EP MM GUILLERMO 1997-08-05 18:00:00 TS 14.6000 -122.400 135 925 hurdat_epa main 1560 1560 O_____________ hurdat_epa EP091997 14.6000 -122.400 HU 135 925 4 14 278
1997212N11265 1997 61 EP MM GUILLERMO 1997-08-05 21:00:00 TS 14.6847 -123.108 main 1603 1603 P_____________ EP091997 14.6847 -123.108 HU 132 927 4 14 278
1997212N11265 1997 61 EP MM GUILLERMO 1997-08-06 00:00:00 TS 14.8000 -123.800 130 930 hurdat_epa main 1648 1648 O_____________ hurdat_epa EP091997 14.8000 -123.800 HU 130 930 4 14 283
1997212N11265 1997 61 EP MM GUILLERMO 1997-08-06 03:00:00 TS 14.9922 -124.492 main 1687 1687 P_____________ EP091997 14.9922 -124.492 HU 127 934 4 14 286
1997212N11265 1997 61 EP MM GUILLERMO 1997-08-06 06:00:00 TS 15.2000 -125.200 125 938 hurdat_epa main 1729 1729 O_____________ hurdat_epa EP091997 15.2000 -125.200 HU 125 938 4 14 284
1997212N11265 1997 61 EP MM GUILLERMO 1997-08-06 09:00:00 TS 15.3498 -125.943 main 1780 1780 P_____________ EP091997 15.3498 -125.943 HU 120 943 4 15 282
1997212N11265 1997 61 EP MM GUILLERMO 1997-08-06 12:00:00 TS 15.5000 -126.700 115 948 hurdat_epa main 1820 1820 O_____________ hurdat_epa EP091997 15.5000 -126.700 HU 115 948 4 15 283
1997212N11265 1997 61 EP MM GUILLERMO 1997-08-06 15:00:00 TS 15.6998 -127.457 main 1859 1859 P_____________ EP091997 15.6998 -127.457 HU 112 951 3 15 285
1997212N11265 1997 61 EP MM GUILLERMO 1997-08-06 18:00:00 TS 15.9000 -128.200 110 954 hurdat_epa main 1893 1893 O_____________ hurdat_epa EP091997 15.9000 -128.200 HU 110 954 3 14 284
1997212N11265 1997 61 EP MM GUILLERMO 1997-08-06 21:00:00 TS 16.0573 -128.915 main 1930 1930 P_____________ EP091997 16.0573 -128.915 HU 105 957 3 14 283
1997212N11265 1997 61 EP MM GUILLERMO 1997-08-07 00:00:00 TS 16.2000 -129.600 100 960 hurdat_epa main 1976 1976 O_____________ hurdat_epa EP091997 16.2000 -129.600 HU 100 960 3 13 282
1997212N11265 1997 61 EP MM GUILLERMO 1997-08-07 03:00:00 TS 16.3424 -130.273 main 2023 2016 P_____________ EP091997 16.3424 -130.273 HU 95 965 2 13 284
1997212N11265 1997 61 EP MM GUILLERMO 1997-08-07 06:00:00 TS 16.5000 -130.900 90 970 hurdat_epa main 2057 2057 O_____________ hurdat_epa EP091997 16.5000 -130.900 HU 90 970 2 12 287
1997212N11265 1997 61 EP MM GUILLERMO 1997-08-07 09:00:00 TS 16.6848 -131.473 main 2092 2092 P_____________ EP091997 16.6848 -131.473 HU 85 974 2 11 291
1997212N11265 1997 61 EP MM GUILLERMO 1997-08-07 12:00:00 TS 16.9000 -132.000 80 979 hurdat_epa main 2120 2120 O_____________ hurdat_epa EP091997 16.9000 -132.000 HU 80 979 1 11 295
1997212N11265 1997 61 EP MM GUILLERMO 1997-08-07 15:00:00 TS 17.1498 -132.500 main 2149 2142 P_____________ EP091997 17.1498 -132.500 HU 75 981 1 11 298
1997212N11265 1997 61 EP MM GUILLERMO 1997-08-07 18:00:00 TS 17.4000 -133.000 70 983 hurdat_epa main 2172 2172 O_____________ hurdat_epa EP091997 17.4000 -133.000 HU 70 983 1 11 294
1997212N11265 1997 61 EP MM GUILLERMO 1997-08-07 21:00:00 TS 17.6000 -133.550 main 2212 2187 P_____________ EP091997 17.6000 -133.550 HU 67 985 1 11 291
1997212N11265 1997 61 EP MM GUILLERMO 1997-08-08 00:00:00 TS 17.8000 -134.100 65 987 hurdat_epa main 2187 2132 O_____________ hurdat_epa EP091997 17.8000 -134.100 HU 65 987 1 11 293
1997212N11265 1997 61 EP MM GUILLERMO 1997-08-08 03:00:00 TS 18.0348 -134.608 main 2132 2075 P_____________ EP091997 18.0348 -134.608 HU 62 988 0 11 298
1997212N11265 1997 61 EP MM GUILLERMO 1997-08-08 06:00:00 TS 18.3000 -135.100 60 990 hurdat_epa main 2075 2019 O_____________ hurdat_epa EP091997 18.3000 -135.100 TS 60 990 0 11 300
1997212N11265 1997 61 EP MM GUILLERMO 1997-08-08 09:00:00 TS 18.5924 -135.608 main 2019 1963 P_____________ EP091997 18.5924 -135.608 TS 57 991 0 11 302
1997212N11265 1997 61 EP MM GUILLERMO 1997-08-08 12:00:00 TS 18.9000 -136.100 55 993 hurdat_epa main 1963 1919 O_____________ hurdat_epa EP091997 18.9000 -136.100 TS 55 993 0 11 304
1997212N11265 1997 61 EP MM GUILLERMO 1997-08-08 15:00:00 TS 19.2073 -136.558 main 1908 1864 P_____________ EP091997 19.2073 -136.558 TS 55 994 0 10 305
1997212N11265 1997 61 EP MM GUILLERMO 1997-08-08 18:00:00 TS 19.5000 -137.000 55 995 hurdat_epa main 1864 1821 O_____________ hurdat_epa EP091997 19.5000 -137.000 TS 55 995 0 10 302
1997212N11265 1997 61 EP MM GUILLERMO 1997-08-08 21:00:00 TS 19.7425 -137.465 main 1811 1768 P_____________ EP091997 19.7425 -137.465 TS 52 996 0 10 301
1997212N11265 1997 61 EP MM GUILLERMO 1997-08-09 00:00:00 TS 20.0000 -137.900 50 997 hurdat_epa main 1768 1737 O_____________ hurdat_epa EP091997 20.0000 -137.900 TS 50 997 0 10 309
1997212N11265 1997 61 EP MM GUILLERMO 1997-08-09 03:00:00 TS 20.3423 -138.265 main 1726 1696 P_____________ EP091997 20.3423 -138.265 TS 47 997 0 10 317
1997212N11265 1997 61 EP MM GUILLERMO 1997-08-09 06:00:00 TS 20.7000 -138.600 45 998 hurdat_epa main 1696 1665 O_____________ hurdat_epa EP091997 20.7000 -138.600 TS 45 998 0 9 316
1997212N11265 1997 61 EP MM GUILLERMO 1997-08-09 09:00:00 TS 21.0075 -138.958 main 1655 1627 P_____________ EP091997 21.0075 -138.958 TS 45 999 0 9 313
1997212N11265 1997 61 EP MM GUILLERMO 1997-08-09 12:00:00 TS 21.3000 -139.300 45 1000 hurdat_epa main 1627 1597 O_____________ hurdat_epa EP091997 21.3000 -139.300 TS 45 1000 0 8 314
1997212N11265 1997 61 EP MM GUILLERMO 1997-08-09 15:00:00 TS 21.5924 -139.615 main 1599 1570 P_____________ EP091997 21.5924 -139.615 TS 45 1001 0 8 317
1997212N11265 1997 61 EP MM GUILLERMO 1997-08-09 18:00:00 TS 21.9000 -139.900 45 1002 hurdat_epa main 1571 1554 O_____________ hurdat_epa EP091997 21.9000 -139.900 TS 45 1002 0 8 323
1997212N11265 1997 61 EP CP GUILLERMO 1997-08-09 21:00:00 TS 22.2423 -140.135 main 1556 1533 P_____________ EP091997 22.2423 -140.135 TS 42 1003 0 8 327
1997212N11265 1997 61 EP CP GUILLERMO 1997-08-10 00:00:00 TS 22.6000 -140.400 40 1005 hurdat_epa main 1533 1499 O_____________ hurdat_epa EP091997 22.6000 -140.400 TS 40 1005 0 9 319
1997212N11265 1997 61 EP CP GUILLERMO 1997-08-10 03:00:00 TS 22.9341 -140.796 main 1499 1469 P_____________ EP091997 22.9352 -140.793 TS 37 1005 0 10 314
1997212N11265 1997 61 EP CP GUILLERMO 1997-08-10 06:00:00 TS 23.3000 -141.200 35 1006 hurdat_epa main 1469 1448 O_____________ hurdat_epa EP091997 23.3000 -141.200 TS 35 1006 0 11 320
1997212N11265 1997 61 EP CP GUILLERMO 1997-08-10 09:00:00 TS 23.7424 -141.530 main 1451 1436 P_____________ EP091997 23.7424 -141.530 TS 35 1006 0 11 329
1997212N11265 1997 61 EP CP GUILLERMO 1997-08-10 12:00:00 TS 24.2000 -141.800 35 1006 hurdat_epa main 1439 1431 O_____________ hurdat_epa EP091997 24.2000 -141.800 TS 35 1006 0 10 333
1997212N11265 1997 61 EP CP GUILLERMO 1997-08-10 15:00:00 TS 24.5999 -142.015 main 1435 1429 P_____________ EP091997 24.5999 -142.015 TS 32 1006 -1 9 336
1997212N11265 1997 61 EP CP GUILLERMO 1997-08-10 18:00:00 TS 25.0000 -142.200 30 1007 hurdat_epa main 1433 1428 O_____________ hurdat_epa EP091997 25.0000 -142.200 TD 30 1007 -1 9 338
1997212N11265 1997 61 EP CP GUILLERMO 1997-08-10 21:00:00 TS 25.4424 -142.393 main 1433 1433 P_____________ EP091997 25.4424 -142.393 TD 30 1007 -1 10 338
1997212N11265 1997 61 EP CP GUILLERMO 1997-08-11 00:00:00 TS 25.9000 -142.600 30 1007 hurdat_epa main 1439 1436 O_____________ hurdat_epa EP091997 25.9000 -142.600 TD 30 1007 -1 10 336
1997212N11265 1997 61 EP CP GUILLERMO 1997-08-11 03:00:00 TS 26.3575 -142.843 main 1449 1440 P_____________ EP091997 26.3575 -142.843 TD 30 1007 -1 10 334
1997212N11265 1997 61 EP CP GUILLERMO 1997-08-11 06:00:00 TS 26.8000 -143.100 30 1007 hurdat_epa main 1445 1442 O_____________ hurdat_epa EP091997 26.8000 -143.100 TD 30 1007 -1 10 333
1997212N11265 1997 61 EP CP GUILLERMO 1997-08-11 09:00:00 TS 27.2073 -143.328 main 1451 1446 P_____________ EP091997 27.2073 -143.328 TD 30 1005 -1 9 331
1997212N11265 1997 61 EP CP GUILLERMO 1997-08-11 12:00:00 TS 27.6000 -143.600 30 1004 hurdat_epa main 1450 1445 O_____________ hurdat_epa EP091997 27.6000 -143.600 TD 30 1004 -1 10 325
1997212N11265 1997 61 EP CP GUILLERMO 1997-08-11 15:00:00 TS 28.0149 -143.963 main 1444 1440 P_____________ EP091997 28.0149 -143.963 TD 32 1006 -1 11 319
1997212N11265 1997 61 EP CP GUILLERMO 1997-08-11 18:00:00 TS 28.4000 -144.400 35 1008 hurdat_epa main 1440 1424 O_____________ hurdat_epa EP091997 28.4000 -144.400 TS 35 1008 0 11 311
1997212N11265 1997 61 EP CP GUILLERMO 1997-08-11 21:00:00 TS 28.7226 -144.900 main 1424 1406 P_____________ EP091997 28.7226 -144.900 TS 35 1007 0 11 304
1997212N11265 1997 61 EP CP GUILLERMO 1997-08-12 00:00:00 TS 29.0000 -145.400 35 1007 hurdat_epa main 1406 1390 O_____________ hurdat_epa EP091997 29.0000 -145.400 TS 35 1007 0 10 305
1997212N11265 1997 61 EP CP GUILLERMO 1997-08-12 03:00:00 TS 29.2721 -145.800 main 1397 1382 P_____________ EP091997 29.2721 -145.800 TS 37 1003 0 9 306
1997212N11265 1997 61 EP CP GUILLERMO 1997-08-12 06:00:00 TS 29.5000 -146.200 40 1000 hurdat_epa main 1383 1362 O_____________ hurdat_epa EP091997 29.5000 -146.200 TS 40 1000 0 9 297
1997212N11265 1997 61 EP CP GUILLERMO 1997-08-12 09:00:00 TS 29.6574 -146.678 main 1363 1337 P_____________ EP091997 29.6574 -146.678 TS 40 1000 0 9 289
1997212N11265 1997 61 EP CP GUILLERMO 1997-08-12 12:00:00 TS 29.8000 -147.200 40 1000 hurdat_epa main 1337 1319 O_____________ hurdat_epa EP091997 29.8000 -147.200 TS 40 1000 0 10 290
1997212N11265 1997 61 EP CP GUILLERMO 1997-08-12 15:00:00 TS 29.9849 -147.743 main 1321 1299 P_____________ EP091997 29.9849 -147.743 TS 40 1002 0 10 293
1997212N11265 1997 61 EP CP GUILLERMO 1997-08-12 18:00:00 TS 30.2000 -148.300 40 1004 hurdat_epa main 1302 1291 O_____________ hurdat_epa EP091997 30.2000 -148.300 TS 40 1004 0 11 296
1997212N11265 1997 61 EP CP GUILLERMO 1997-08-12 21:00:00 TS 30.4574 -148.857 main 1295 1283 P_____________ EP091997 30.4574 -148.857 TS 40 1004 0 11 298
1997212N11265 1997 61 EP CP GUILLERMO 1997-08-13 00:00:00 TS 30.7000 -149.400 40 1004 hurdat_epa main 1287 1272 O_____________ hurdat_epa EP091997 30.7000 -149.400 TS 40 1004 0 10 294
1997212N11265 1997 61 EP CP GUILLERMO 1997-08-13 03:00:00 TS 30.8495 -149.893 main 1272 1267 P_____________ EP091997 30.8495 -149.893 TS 40 1004 0 9 289
1997212N11265 1997 61 EP CP GUILLERMO 1997-08-13 06:00:00 TS 31.0000 -150.400 40 1004 hurdat_epa main 1268 1261 O_____________ hurdat_epa EP091997 31.0000 -150.400 TS 40 1004 0 10 292
1997212N11265 1997 61 EP CP GUILLERMO 1997-08-13 09:00:00 TS 31.2198 -150.978 main 1263 1263 P_____________ EP091997 31.2198 -150.978 TS 40 1004 0 11 296
1997212N11265 1997 61 EP CP GUILLERMO 1997-08-13 12:00:00 TS 31.5000 -151.600 40 1004 hurdat_epa main 1269 1265 O_____________ hurdat_epa EP091997 31.5000 -151.600 TS 40 1004 0 13 299
1997212N11265 1997 61 EP CP GUILLERMO 1997-08-13 15:00:00 TS 31.8276 -152.265 main 1266 1266 P_____________ EP091997 31.8276 -152.265 TS 42 1004 0 13 302
1997212N11265 1997 61 EP CP GUILLERMO 1997-08-13 18:00:00 TS 32.2000 -152.900 45 1004 hurdat_epa main 1282 1278 O_____________ hurdat_epa EP091997 32.2000 -152.900 TS 45 1004 0 12 308
1997212N11265 1997 61 EP CP GUILLERMO 1997-08-13 21:00:00 TS 32.5917 -153.401 main 1306 1302 P_____________ EP091997 32.5917 -153.401 TS 50 1002 0 12 314
1997212N11265 1997 61 EP CP GUILLERMO 1997-08-14 00:00:00 TS 33.0000 -153.900 55 1000 hurdat_epa main 1327 1323 O_____________ hurdat_epa EP091997 33.0000 -153.900 TS 55 1000 0 13 310
1997212N11265 1997 61 EP CP GUILLERMO 1997-08-14 03:00:00 TS 33.4002 -154.543 main 1346 1343 P_____________ EP091997 33.4002 -154.543 TS 52 1000 0 13 306
1997212N11265 1997 61 EP CP GUILLERMO 1997-08-14 06:00:00 TS 33.8000 -155.200 50 1000 hurdat_epa main 1366 1363 O_____________ hurdat_epa EP091997 33.8000 -155.200 TS 50 1000 0 13 308
1997212N11265 1997 61 EP CP GUILLERMO 1997-08-14 09:00:00 TS 34.1845 -155.766 main 1393 1393 P_____________ EP091997 34.1845 -155.766 TS 47 1000 0 12 311
1997212N11265 1997 61 EP CP GUILLERMO 1997-08-14 12:00:00 TS 34.6000 -156.300 45 1000 hurdat_epa main 1425 1423 O_____________ hurdat_epa EP091997 34.6000 -156.300 TS 45 1000 0 13 315
1997212N11265 1997 61 EP CP GUILLERMO 1997-08-14 15:00:00 TS 35.0699 -156.858 main 1469 1469 P_____________ EP091997 35.0699 -156.858 TS 42 1003 0 13 318
1997212N11265 1997 61 EP CP GUILLERMO 1997-08-14 18:00:00 TS 35.6000 -157.400 40 1006 hurdat_epa main 1518 1518 O_____________ hurdat_epa EP091997 35.6000 -157.400 TS 40 1006 0 14 322
1997212N11265 1997 61 EP CP GUILLERMO 1997-08-14 21:00:00 TS 36.1849 -157.930 main 1579 1578 P_____________ EP091997 36.1849 -157.930 TS 37 1007 0 14 326
1997212N11265 1997 61 EP CP GUILLERMO 1997-08-15 00:00:00 TS 36.8000 -158.400 35 1008 hurdat_epa main 1642 1642 O_____________ hurdat_epa EP091997 36.8000 -158.400 TS 35 1008 0 14 331
1997212N11265 1997 61 EP CP GUILLERMO 1997-08-15 03:00:00 TS 37.3922 -158.781 main 1708 1708 P_____________ EP091997 37.3922 -158.781 TS 35 1008 0 13 335
1997212N11265 1997 61 EP CP GUILLERMO 1997-08-15 06:00:00 TS 38.0000 -159.100 35 1009 hurdat_epa main 1774 1737 O_____________ hurdat_epa EP091997 38.0000 -159.100 TS 35 1009 0 14 338
1997212N11265 1997 61 EP CP GUILLERMO 1997-08-15 09:00:00 TS 38.6499 -159.415 main 1737 1655 P_____________ EP091997 38.6499 -159.415 TS 32 1009 -1 14 340
1997212N11265 1997 61 EP CP GUILLERMO 1997-08-15 12:00:00 TS 39.3000 -159.700 30 1010 hurdat_epa main 1655 1586 O_____________ hurdat_epa EP091997 39.3000 -159.700 TD 30 1010 -1 13 342
1997212N11265 1997 61 EP CP GUILLERMO 1997-08-15 15:00:00 TS 39.9016 -159.939 main 1586 1515 P_____________ EP091997 39.8997 -159.936 TD 30 1011 -1 13 342
1997212N11265 1997 61 EP CP GUILLERMO 1997-08-15 18:00:00 TS 40.5000 -160.200 30 1012 hurdat_epa main 1515 1444 O_____________ hurdat_epa EP091997 40.5000 -160.200 TD 30 1012 -1 13 339
1997212N11265 1997 61 EP CP GUILLERMO 1997-08-15 21:00:00 TS 41.1425 -160.570 main 1441 1357 P_____________ EP091997 41.1425 -160.570 TD 30 1011 -1 14 335
1997212N11265 1997 61 EP CP GUILLERMO 1997-08-16 00:00:00 ET 41.8000 -161.000 30 1010 hurdat_epa main 1357 1284 O_____________ hurdat_epa EP091997 41.8000 -161.000 EX 30 1010 -4 15 333
1997212N11265 1997 61 EP CP GUILLERMO 1997-08-16 03:00:00 ET 42.4576 -161.465 main 1271 1198 P_____________ EP091997 42.4576 -161.465 EX 30 1009 -4 15 333
1997212N11265 1997 61 EP CP GUILLERMO 1997-08-16 06:00:00 ET 43.1000 -161.900 30 1009 hurdat_epa main 1198 1127 O_____________ hurdat_epa EP091997 43.1000 -161.900 EX 30 1009 -4 14 335
1997212N11265 1997 61 EP CP GUILLERMO 1997-08-16 09:00:00 ET 43.7073 -162.246 main 1127 1057 P_____________ EP091997 43.7073 -162.246 EX 30 1011 -4 13 340
1997212N11265 1997 61 EP CP GUILLERMO 1997-08-16 12:00:00 ET 44.3000 -162.500 30 1014 hurdat_epa main 1057 988 O_____________ hurdat_epa EP091997 44.3000 -162.500 EX 30 1014 -4 12 344
1997212N11265 1997 61 EP CP GUILLERMO 1997-08-16 15:00:00 ET 44.8999 -162.724 main 988 922 P_____________ EP091997 44.8999 -162.724 EX 30 1016 -4 12 350
1997212N11265 1997 61 EP CP GUILLERMO 1997-08-16 18:00:00 ET 45.5000 -162.800 30 1018 hurdat_epa main 922 861 O_____________ hurdat_epa EP091997 45.5000 -162.800 EX 30 1018 -4 12 0
1997212N11265 1997 61 EP CP GUILLERMO 1997-08-16 21:00:00 ET 46.1220 -162.712 main 861 806 P_____________ EP091997 46.1220 -162.712 EX 27 1017 -4 12 13
1997212N11265 1997 61 EP CP GUILLERMO 1997-08-17 00:00:00 ET 46.7000 -162.400 25 1016 hurdat_epa main 806 769 O_____________ hurdat_epa EP091997 46.7000 -162.400 EX 25 1016 -4 12 28
1997212N11265 1997 61 EP CP GUILLERMO 1997-08-17 03:00:00 ET 47.1872 -161.897 main 769 750 P_____________ EP091997 47.1872 -161.897 EX 27 1016 -4 12 42
1997212N11265 1997 61 EP CP GUILLERMO 1997-08-17 06:00:00 ET 47.6000 -161.200 30 1016 hurdat_epa main 754 743 O_____________ hurdat_epa EP091997 47.6000 -161.200 EX 30 1016 -4 13 52
1997212N11265 1997 61 EP CP GUILLERMO 1997-08-17 09:00:00 ET 47.9719 -160.416 main 747 747 P_____________ EP091997 47.9719 -160.416 EX 27 1017 -4 13 58
1997212N11265 1997 61 EP CP GUILLERMO 1997-08-17 12:00:00 ET 48.3000 -159.500 25 1018 hurdat_epa main 753 745 O_____________ hurdat_epa EP091997 48.3000 -159.500 EX 25 1018 -4 14 63
1997212N11265 1997 61 EP CP GUILLERMO 1997-08-17 15:00:00 ET 48.6065 -158.508 main 751 744 P_____________ EP091997 48.6065 -158.508 EX 25 1017 -4 15 67
1997212N11265 1997 61 EP CP GUILLERMO 1997-08-17 18:00:00 ET 48.9000 -157.400 25 1016 hurdat_epa main 751 741 O_____________ hurdat_epa EP091997 48.9000 -157.400 EX 25 1016 -4 16 68
1997212N11265 1997 61 EP CP GUILLERMO 1997-08-17 21:00:00 ET 49.2135 -156.210 main 745 738 P_____________ EP091997 49.2135 -156.210 EX 25 1015 -4 17 70
1997212N11265 1997 61 EP CP GUILLERMO 1997-08-18 00:00:00 ET 49.5000 -154.900 25 1015 hurdat_epa main 746 744 O_____________ hurdat_epa EP091997 49.5000 -154.900 EX 25 1015 -4 18 74
1997212N11265 1997 61 EP CP GUILLERMO 1997-08-18 03:00:00 ET 49.7065 -153.485 main 770 762 P_____________ EP091997 49.7065 -153.485 EX 25 1012 -4 19 78
1997212N11265 1997 61 EP CP GUILLERMO 1997-08-18 06:00:00 ET 49.9000 -152.000 25 1010 hurdat_epa main 765 756 O_____________ hurdat_epa EP091997 49.9000 -152.000 EX 25 1010 -4 20 77
1997212N11265 1997 61 EP CP GUILLERMO 1997-08-18 09:00:00 ET 50.1561 -150.501 main 756 756 P_____________ EP091997 50.1561 -150.501 EX 27 1010 -4 20 75
1997212N11265 1997 61 EP CP GUILLERMO 1997-08-18 12:00:00 ET 50.4000 -149.000 30 1010 hurdat_epa main 771 771 O_____________ hurdat_epa EP091997 50.4000 -149.000 EX 30 1010 -4 19 78
1997212N11265 1997 61 EP CP GUILLERMO 1997-08-18 15:00:00 ET 50.5567 -147.502 main 798 798 P_____________ EP091997 50.5567 -147.502 EX 27 1007 -4 19 81
1997212N11265 1997 61 EP CP GUILLERMO 1997-08-18 18:00:00 ET 50.7000 -146.100 25 1005 hurdat_epa main 841 841 O_____________ hurdat_epa EP091997 50.7000 -146.100 EX 25 1005 -4 17 78
1997212N11265 1997 61 EP CP GUILLERMO 1997-08-18 21:00:00 ET 50.9136 -144.826 main 852 780 P_____________ EP091997 50.9136 -144.826 EX 27 1004 -4 16 75
1997212N11265 1997 61 EP CP GUILLERMO 1997-08-19 00:00:00 ET 51.1000 -143.700 30 1003 hurdat_epa main 773 707 O_____________ hurdat_epa EP091997 51.1000 -143.700 EX 30 1003 -4 14 76
1997212N11265 1997 61 EP CP GUILLERMO 1997-08-19 03:00:00 ET 51.2469 -142.654 main 707 651 P_____________ EP091997 51.2469 -142.654 EX 30 1002 -4 12 85
1997212N11265 1997 61 EP CP GUILLERMO 1997-08-19 06:00:00 ET 51.2000 -141.800 30 1002 hurdat_epa main 651 629 O_____________ hurdat_epa EP091997 51.2000 -141.800 EX 30 1002 -4 10 114
1997212N11265 1997 61 EP CP GUILLERMO 1997-08-19 09:00:00 ET 50.8317 -141.143 main 628 627 P_____________ EP091997 50.8317 -141.143 EX 30 1003 -4 11 142
1997212N11265 1997 61 EP CP GUILLERMO 1997-08-19 12:00:00 ET 50.3000 -140.700 30 1004 hurdat_epa main 634 634 O_____________ hurdat_epa EP091997 50.3000 -140.700 EX 30 1004 -4 11 154
1997212N11265 1997 61 EP CP GUILLERMO 1997-08-19 15:00:00 ET 49.8296 -140.384 main 650 650 P_____________ EP091997 49.8296 -140.384 EX 30 1004 -4 10 162
1997212N11265 1997 61 EP CP GUILLERMO 1997-08-19 18:00:00 ET 49.3000 -140.200 30 1004 hurdat_epa main 676 676 O_____________ hurdat_epa EP091997 49.3000 -140.200 EX 30 1004 -4 12 170
1997212N11265 1997 61 EP CP GUILLERMO 1997-08-19 21:00:00 ET 48.6874 -140.078 main 714 714 P_____________ EP091997 48.6874 -140.078 EX 30 1004 -4 13 174
1997212N11265 1997 61 EP CP GUILLERMO 1997-08-20 00:00:00 ET 48.0000 -140.000 30 1004 hurdat_epa main 762 762 O_____________ hurdat_epa EP091997 48.0000 -140.000 EX 30 1004 -4 14 175
1997212N11265 1997 61 EP MM GUILLERMO 1997-08-20 03:00:00 ET 47.2650 -139.908 main 811 811 P_____________ EP091997 47.2650 -139.908 EX 30 1005 -4 15 175
1997212N11265 1997 61 EP MM GUILLERMO 1997-08-20 06:00:00 ET 46.5000 -139.800 30 1006 hurdat_epa main 872 872 O_____________ hurdat_epa EP091997 46.5000 -139.800 EX 30 1006 -4 15 174
1997212N11265 1997 61 EP MM GUILLERMO 1997-08-20 09:00:00 ET 45.7349 -139.673 main 935 935 P_____________ EP091997 45.7349 -139.673 EX 30 1005 -4 15 172
1997212N11265 1997 61 EP MM GUILLERMO 1997-08-20 12:00:00 ET 45.0000 -139.500 30 1004 hurdat_epa main 989 989 O_____________ hurdat_epa EP091997 45.0000 -139.500 EX 30 1004 -4 15 169
1997212N11265 1997 61 EP MM GUILLERMO 1997-08-20 15:00:00 ET 44.3125 -139.273 main 1046 1046 P_____________ EP091997 44.3125 -139.273 EX 30 1004 -4 13 165
1997212N11265 1997 61 EP MM GUILLERMO 1997-08-20 18:00:00 ET 43.7000 -139.000 30 1005 hurdat_epa main 1092 1092 O_____________ hurdat_epa EP091997 43.7000 -139.000 EX 30 1005 -4 12 160
1997212N11265 1997 61 EP MM GUILLERMO 1997-08-20 21:00:00 ET 43.1550 -138.700 main 1121 1120 P_____________ EP091997 43.1550 -138.700 EX 27 1005 -4 11 156
1997212N11265 1997 61 EP MM GUILLERMO 1997-08-21 00:00:00 ET 42.7000 -138.400 25 1005 hurdat_epa main 1121 1107 O_____________ hurdat_epa EP091997 42.7000 -138.400 EX 25 1005 -4 9 154
1997212N11265 1997 61 EP MM GUILLERMO 1997-08-21 03:00:00 ET 42.3199 -138.143 main 1102 1089 P_____________ EP091997 42.3199 -138.143 EX 25 1005 -4 8 152
1997212N11265 1997 61 EP MM GUILLERMO 1997-08-21 06:00:00 ET 42.0000 -137.900 25 1006 hurdat_epa main 1090 1078 O_____________ hurdat_epa EP091997 42.0000 -137.900 EX 25 1006 -4 7 150
1997212N11265 1997 61 EP MM GUILLERMO 1997-08-21 09:00:00 ET 41.6924 -137.658 main 1080 1062 P_____________ EP091997 41.6924 -137.658 EX 25 1005 -4 7 148
1997212N11265 1997 61 EP MM GUILLERMO 1997-08-21 12:00:00 ET 41.4000 -137.400 25 1005 hurdat_epa main 1062 1043 O_____________ hurdat_epa EP091997 41.4000 -137.400 EX 25 1005 -4 7 144
1997212N11265 1997 61 EP MM GUILLERMO 1997-08-21 15:00:00 ET 41.1001 -137.085 main 1046 1028 P_____________ EP091997 41.1001 -137.085 EX 25 1005 -4 8 143
1997212N11265 1997 61 EP MM GUILLERMO 1997-08-21 18:00:00 ET 40.8000 -136.800 25 1006 hurdat_epa main 1031 1025 O_____________ hurdat_epa EP091997 40.8000 -136.800 EX 25 1006 -4 7 151
1997212N11265 1997 61 EP MM GUILLERMO 1997-08-21 21:00:00 ET 40.4849 -136.628 main 1025 1021 P_____________ EP091997 40.4849 -136.628 EX 25 1006 -4 6 159
1997212N11265 1997 61 EP MM GUILLERMO 1997-08-22 00:00:00 ET 40.2000 -136.500 25 1006 hurdat_epa main 1022 1015 O_____________ hurdat_epa EP091997 40.2000 -136.500 EX 25 1006 -4 5 158
1997212N11265 1997 61 EP MM GUILLERMO 1997-08-22 03:00:00 ET 39.9849 -136.358 main 1016 1000 P_____________ EP091997 39.9849 -136.358 EX 27 1007 -4 5 150
1997212N11265 1997 61 EP MM GUILLERMO 1997-08-22 06:00:00 ET 39.8000 -136.200 30 1009 hurdat_epa main 1002 988 O_____________ hurdat_epa EP091997 39.8000 -136.200 EX 30 1009 -4 5 147
1997212N11265 1997 61 EP MM GUILLERMO 1997-08-22 09:00:00 ET 39.5999 -136.030 main 988 974 P_____________ EP091997 39.5999 -136.030 EX 27 1009 -4 5 142
1997212N11265 1997 61 EP MM GUILLERMO 1997-08-22 12:00:00 ET 39.4000 -135.800 25 1010 hurdat_epa main 974 953 O_____________ hurdat_epa EP091997 39.4000 -135.800 EX 25 1010 -4 6 135
1997212N11265 1997 61 EP MM GUILLERMO 1997-08-22 15:00:00 ET 39.1848 -135.495 main 953 924 P_____________ EP091997 39.1848 -135.495 EX 25 1011 -4 7 126
1997212N11265 1997 61 EP MM GUILLERMO 1997-08-22 18:00:00 ET 39.0000 -135.100 25 1012 hurdat_epa main 924 892 O_____________ hurdat_epa EP091997 39.0000 -135.100 EX 25 1012 -4 7 115
1997212N11265 1997 61 EP MM GUILLERMO 1997-08-22 21:00:00 ET 38.8774 -134.630 main 884 845 P_____________ EP091997 38.8774 -134.630 EX 25 1012 -4 8 104
1997212N11265 1997 61 EP MM GUILLERMO 1997-08-23 00:00:00 ET 38.8000 -134.100 25 1012 hurdat_epa main 845 806 O_____________ hurdat_epa EP091997 38.8000 -134.100 EX 25 1012 -4 9 100
1997212N11265 1997 61 EP MM GUILLERMO 1997-08-23 03:00:00 ET 38.7275 -133.550 main 798 756 P_____________ EP091997 38.7275 -133.550 EX 25 1013 -4 9 97
1997212N11265 1997 61 EP MM GUILLERMO 1997-08-23 06:00:00 ET 38.7000 -133.000 25 1014 hurdat_epa main 756 715 O_____________ hurdat_epa EP091997 38.7000 -133.000 EX 25 1014 -4 8 89
1997212N11265 1997 61 EP MM GUILLERMO 1997-08-23 09:00:00 ET 38.7422 -132.493 main 715 670 P_____________ EP091997 38.7422 -132.493 EX 22 1014 -4 8 83
1997212N11265 1997 61 EP MM GUILLERMO 1997-08-23 12:00:00 ET 38.8000 -132.000 20 1014 hurdat_epa main 670 629 O_____________ hurdat_epa EP091997 38.8000 -132.000 EX 20 1014 -4 8 86
1997212N11265 1997 61 EP MM GUILLERMO 1997-08-23 15:00:00 ET 38.7923 -131.500 main 629 588 P_____________ EP091997 38.7923 -131.500 EX 20 1014 -4 8 90
1997212N11265 1997 61 EP MM GUILLERMO 1997-08-23 18:00:00 ET 38.8000 -131.000 20 1014 hurdat_epa main 588 543 O_____________ hurdat_epa EP091997 38.8000 -131.000 EX 20 1014 -4 8 84
1997212N11265 1997 61 EP MM GUILLERMO 1997-08-23 21:00:00 ET 38.8779 -130.501 main 543 499 P_____________ EP091997 38.8779 -130.501 EX 20 1014 -4 8 76
1997212N11265 1997 61 EP MM GUILLERMO 1997-08-24 00:00:00 ET 39.0000 -130.000 20 1014 hurdat_epa main 499 O_____________ hurdat_epa EP091997 39.0000 -130.000 EX 20 1014 -4 8 73

About IBTrACS Database

This database is a web-friendly format of International Best Track Archive for Climate Stewardship (IBTrACS), a global best track data archive curated by NOAA dating back to 1842.

Updated: 2021-10-08